createdAt,value
2023-03-19T00:00:45.151Z,117.43
2023-03-19T00:01:46.635Z,117.19
2023-03-19T00:02:44.440Z,116.78
2023-03-19T00:03:45.212Z,116.45
2023-03-19T00:04:45.119Z,115.81
2023-03-19T00:05:45.084Z,116.29
2023-03-19T00:06:45.093Z,115.89
2023-03-19T00:07:45.050Z,116.21
2023-03-19T00:08:45.057Z,116.29
2023-03-19T00:09:45.032Z,116.05
2023-03-19T00:10:45.039Z,115.81
2023-03-19T00:11:45.012Z,115.72
2023-03-19T00:12:45.757Z,115.17
2023-03-19T00:13:44.998Z,114.69
2023-03-19T00:14:44.981Z,114.22
2023-03-19T00:15:44.967Z,114.69
2023-03-19T00:16:44.984Z,114.38
2023-03-19T00:17:44.908Z,114.22
2023-03-19T00:18:44.930Z,113.99
2023-03-19T00:19:44.912Z,113.52
2023-03-19T00:20:44.904Z,113.14
2023-03-19T00:21:44.883Z,112.53
2023-03-19T00:22:44.845Z,113.06
2023-03-19T00:23:44.850Z,112.91
2023-03-19T00:24:44.842Z,113.14
2023-03-19T00:25:44.837Z,112.53
2023-03-19T00:26:44.516Z,112.68
2023-03-19T00:27:44.562Z,112.68
2023-03-19T00:28:44.794Z,112.98
2023-03-19T00:29:45.494Z,112.75
2023-03-19T00:30:44.544Z,112.68
2023-03-19T00:31:44.508Z,112.91
2023-03-19T00:32:44.530Z,112.75
2023-03-19T00:33:44.502Z,113.21
2023-03-19T00:34:44.540Z,113.14
2023-03-19T00:35:44.014Z,112.91
2023-03-19T00:36:44.670Z,113.99
2023-03-19T00:37:44.008Z,113.21
2023-03-19T00:38:44.655Z,113.52
2023-03-19T00:39:44.649Z,114.46
2023-03-19T00:40:45.338Z,113.83
2023-03-19T00:41:44.613Z,114.06
2023-03-19T00:42:43.890Z,114.46
2023-03-19T00:43:44.210Z,115.64
2023-03-19T00:44:44.577Z,114.93
2023-03-19T00:45:43.981Z,115.09
2023-03-19T00:46:44.306Z,114.69
2023-03-19T00:47:44.507Z,114.85
2023-03-19T00:48:44.517Z,114.69
2023-03-19T00:49:44.505Z,115.81
2023-03-19T00:50:44.488Z,115.56
2023-03-19T00:51:44.475Z,116.37
2023-03-19T00:52:45.199Z,115.48
2023-03-19T00:53:45.170Z,115.64
2023-03-19T00:54:45.146Z,116.05
2023-03-19T00:55:45.144Z,116.78
2023-03-19T00:56:44.423Z,117.19
2023-03-19T00:57:44.376Z,117.11
2023-03-19T00:58:45.106Z,118.02
2023-03-19T00:59:44.360Z,118.43
2023-03-19T01:00:44.356Z,118.69
2023-03-19T01:01:45.089Z,118.77
2023-03-19T01:02:45.053Z,118.86
2023-03-19T01:03:44.319Z,118.69
2023-03-19T01:04:44.446Z,118.27
2023-03-19T01:05:44.287Z,119.45
2023-03-19T01:06:43.545Z,117.93
2023-03-19T01:07:44.242Z,120.75
2023-03-19T01:08:44.249Z,120.14
2023-03-19T01:09:44.229Z,120.75
2023-03-19T01:10:44.205Z,121.10
2023-03-19T01:11:44.215Z,121.90
2023-03-19T01:12:43.565Z,121.19
2023-03-19T01:13:44.148Z,122.34
2023-03-19T01:14:44.864Z,122.34
2023-03-19T01:15:44.141Z,120.75
2023-03-19T01:16:44.129Z,121.28
2023-03-19T01:17:44.111Z,122.97
2023-03-19T01:18:44.087Z,123.70
2023-03-19T01:19:44.309Z,124.81
2023-03-19T01:20:44.099Z,123.79
2023-03-19T01:21:44.068Z,121.81
2023-03-19T01:22:44.049Z,123.52
2023-03-19T01:23:44.014Z,123.70
2023-03-19T01:24:44.017Z,123.43
2023-03-19T01:25:44.013Z,123.70
2023-03-19T01:26:43.998Z,125.66
2023-03-19T01:27:44.006Z,125.75
2023-03-19T01:28:43.935Z,125.38
2023-03-19T01:29:43.978Z,125.28
2023-03-19T01:30:43.224Z,126.81
2023-03-19T01:31:43.946Z,125.28
2023-03-19T01:32:43.931Z,127.19
2023-03-19T01:33:43.873Z,126.13
2023-03-19T01:34:43.893Z,126.23
2023-03-19T01:35:43.926Z,126.81
2023-03-19T01:36:43.860Z,128.17
2023-03-19T01:37:43.615Z,127.58
2023-03-19T01:38:43.577Z,128.46
2023-03-19T01:39:43.569Z,129.26
2023-03-19T01:40:43.584Z,129.36
2023-03-19T01:41:43.572Z,129.76
2023-03-19T01:42:43.792Z,129.66
2023-03-19T01:43:43.739Z,130.47
2023-03-19T01:44:43.749Z,131.19
2023-03-19T01:45:43.731Z,131.29
2023-03-19T01:46:43.096Z,131.09
2023-03-19T01:47:43.595Z,131.29
2023-03-19T01:48:43.738Z,131.40
2023-03-19T01:49:43.576Z,131.60
2023-03-19T01:50:43.669Z,132.55
2023-03-19T01:51:43.672Z,132.13
2023-03-19T01:52:43.644Z,132.97
2023-03-19T01:53:43.205Z,132.34
2023-03-19T01:54:43.594Z,132.44
2023-03-19T01:55:43.585Z,133.29
2023-03-19T01:56:44.304Z,132.86
2023-03-19T01:57:43.590Z,134.25
2023-03-19T01:58:44.295Z,133.71
2023-03-19T01:59:43.561Z,133.71
2023-03-19T02:00:43.549Z,134.04
2023-03-19T02:01:43.574Z,134.90
2023-03-19T02:02:43.511Z,134.47
2023-03-19T02:03:43.481Z,134.58
2023-03-19T02:04:43.509Z,135.01
2023-03-19T02:05:43.466Z,135.01
2023-03-19T02:06:43.472Z,135.12
2023-03-19T02:07:43.438Z,135.23
2023-03-19T02:08:43.403Z,136.67
2023-03-19T02:09:43.189Z,136.34
2023-03-19T02:10:43.400Z,136.78
2023-03-19T02:11:43.376Z,136.11
2023-03-19T02:12:43.402Z,136.22
2023-03-19T02:13:43.334Z,136.90
2023-03-19T02:14:43.350Z,137.46
2023-03-19T02:15:43.398Z,137.46
2023-03-19T02:16:43.322Z,137.46
2023-03-19T02:17:43.304Z,137.91
2023-03-19T02:18:43.288Z,137.80
2023-03-19T02:19:43.291Z,138.14
2023-03-19T02:20:43.258Z,138.49
2023-03-19T02:21:43.250Z,138.60
2023-03-19T02:22:43.241Z,139.18
2023-03-19T02:23:43.209Z,138.83
2023-03-19T02:24:43.220Z,139.53
2023-03-19T02:25:43.192Z,138.49
2023-03-19T02:26:43.196Z,140.00
2023-03-19T02:27:43.169Z,140.23
2023-03-19T02:28:43.141Z,140.59
2023-03-19T02:29:43.142Z,140.11
2023-03-19T02:30:43.128Z,140.70
2023-03-19T02:31:43.173Z,140.59
2023-03-19T02:32:43.152Z,141.06
2023-03-19T02:33:43.068Z,140.70
2023-03-19T02:34:42.367Z,140.94
2023-03-19T02:35:43.131Z,142.14
2023-03-19T02:36:43.047Z,141.30
2023-03-19T02:37:43.041Z,141.54
2023-03-19T02:38:42.997Z,141.30
2023-03-19T02:39:42.999Z,141.06
2023-03-19T02:40:42.986Z,141.66
2023-03-19T02:41:42.981Z,141.42
2023-03-19T02:42:42.253Z,141.42
2023-03-19T02:43:42.935Z,141.66
2023-03-19T02:44:43.663Z,141.78
2023-03-19T02:45:42.927Z,142.14
2023-03-19T02:46:42.929Z,141.42
2023-03-19T02:47:42.898Z,142.14
2023-03-19T02:48:42.860Z,141.66
2023-03-19T02:49:42.876Z,142.99
2023-03-19T02:50:42.140Z,142.51
2023-03-19T02:51:42.596Z,141.90
2023-03-19T02:52:42.600Z,141.30
2023-03-19T02:53:42.794Z,141.06
2023-03-19T02:54:42.804Z,140.94
2023-03-19T02:55:42.802Z,140.82
2023-03-19T02:56:42.781Z,140.23
2023-03-19T02:57:42.759Z,141.42
2023-03-19T02:58:42.623Z,140.35
2023-03-19T02:59:42.755Z,141.06
2023-03-19T03:00:42.767Z,140.11
2023-03-19T03:01:42.765Z,140.59
2023-03-19T03:02:42.693Z,140.23
2023-03-19T03:03:42.733Z,140.00
2023-03-19T03:04:42.637Z,140.47
2023-03-19T03:05:42.656Z,140.23
2023-03-19T03:06:42.248Z,140.35
2023-03-19T03:07:43.337Z,140.00
2023-03-19T03:08:42.619Z,140.00
2023-03-19T03:09:42.614Z,140.23
2023-03-19T03:10:43.306Z,139.88
2023-03-19T03:11:43.300Z,139.76
2023-03-19T03:12:43.275Z,139.06
2023-03-19T03:13:43.278Z,139.29
2023-03-19T03:14:43.287Z,138.26
2023-03-19T03:15:43.235Z,139.53
2023-03-19T03:16:43.294Z,139.29
2023-03-19T03:17:43.216Z,139.18
2023-03-19T03:18:42.484Z,138.49
2023-03-19T03:19:42.448Z,138.60
2023-03-19T03:20:42.470Z,138.83
2023-03-19T03:21:42.444Z,138.60
2023-03-19T03:22:42.449Z,138.49
2023-03-19T03:23:42.413Z,138.83
2023-03-19T03:24:42.388Z,138.72
2023-03-19T03:25:42.389Z,138.60
2023-03-19T03:26:42.377Z,138.60
2023-03-19T03:27:42.375Z,139.18
2023-03-19T03:28:42.355Z,138.83
2023-03-19T03:29:42.311Z,138.37
2023-03-19T03:30:42.319Z,138.72
2023-03-19T03:31:42.406Z,138.72
2023-03-19T03:32:42.327Z,139.64
2023-03-19T03:33:42.275Z,138.60
2023-03-19T03:34:42.241Z,138.37
2023-03-19T03:35:42.252Z,138.95
2023-03-19T03:36:42.249Z,139.76
2023-03-19T03:37:42.228Z,139.53
2023-03-19T03:38:42.197Z,139.41
2023-03-19T03:39:42.182Z,139.06
2023-03-19T03:40:42.194Z,139.18
2023-03-19T03:41:42.186Z,138.60
2023-03-19T03:42:42.164Z,139.41
2023-03-19T03:43:42.147Z,138.72
2023-03-19T03:44:42.109Z,138.95
2023-03-19T03:45:42.149Z,138.14
2023-03-19T03:46:42.118Z,138.72
2023-03-19T03:47:42.107Z,139.53
2023-03-19T03:48:42.075Z,138.60
2023-03-19T03:49:42.046Z,138.95
2023-03-19T03:50:42.051Z,138.72
2023-03-19T03:51:42.048Z,138.72
2023-03-19T03:52:42.064Z,139.06
2023-03-19T03:53:42.005Z,138.49
2023-03-19T03:54:41.983Z,138.49
2023-03-19T03:55:42.001Z,138.37
2023-03-19T03:56:41.972Z,139.29
2023-03-19T03:57:41.683Z,138.83
2023-03-19T03:58:41.943Z,139.64
2023-03-19T03:59:41.902Z,139.41
2023-03-19T04:00:41.911Z,139.06
2023-03-19T04:01:41.694Z,139.88
2023-03-19T04:02:41.968Z,139.88
2023-03-19T04:03:41.882Z,139.18
2023-03-19T04:04:41.841Z,139.18
2023-03-19T04:05:41.860Z,139.18
2023-03-19T04:06:41.848Z,139.88
2023-03-19T04:07:41.829Z,140.00
2023-03-19T04:08:41.211Z,140.35
2023-03-19T04:09:41.398Z,139.18
2023-03-19T04:10:41.784Z,139.88
2023-03-19T04:11:41.785Z,140.23
2023-03-19T04:12:41.548Z,140.00
2023-03-19T04:13:41.748Z,140.94
2023-03-19T04:14:41.722Z,140.11
2023-03-19T04:15:41.726Z,140.59
2023-03-19T04:16:41.729Z,142.26
2023-03-19T04:17:42.416Z,140.00
2023-03-19T04:18:41.711Z,140.11
2023-03-19T04:19:42.394Z,140.59
2023-03-19T04:20:42.370Z,141.42
2023-03-19T04:21:42.367Z,140.47
2023-03-19T04:22:42.353Z,140.59
2023-03-19T04:23:42.342Z,140.47
2023-03-19T04:24:42.350Z,141.66
2023-03-19T04:25:42.300Z,140.11
2023-03-19T04:26:42.300Z,140.47
2023-03-19T04:27:42.296Z,141.66
2023-03-19T04:28:42.263Z,141.06
2023-03-19T04:29:42.269Z,140.35
2023-03-19T04:30:42.572Z,140.59
2023-03-19T04:31:42.233Z,140.11
2023-03-19T04:32:41.547Z,140.00
2023-03-19T04:33:41.507Z,140.82
2023-03-19T04:34:41.475Z,140.23
2023-03-19T04:35:41.501Z,140.00
2023-03-19T04:36:41.448Z,141.66
2023-03-19T04:37:41.429Z,140.59
2023-03-19T04:38:41.424Z,139.76
2023-03-19T04:39:41.378Z,140.70
2023-03-19T04:40:41.376Z,140.70
2023-03-19T04:41:41.368Z,140.23
2023-03-19T04:42:41.354Z,139.64
2023-03-19T04:43:41.347Z,142.38
2023-03-19T04:44:41.305Z,140.47
2023-03-19T04:45:41.314Z,140.59
2023-03-19T04:46:41.305Z,139.53
2023-03-19T04:47:42.020Z,139.88
2023-03-19T04:48:41.287Z,139.18
2023-03-19T04:49:41.240Z,140.35
2023-03-19T04:50:41.249Z,139.64
2023-03-19T04:51:41.248Z,142.14
2023-03-19T04:52:41.221Z,139.64
2023-03-19T04:53:41.212Z,142.02
2023-03-19T04:54:41.186Z,139.29
2023-03-19T04:55:41.198Z,140.94
2023-03-19T04:56:41.172Z,140.70
2023-03-19T04:57:40.716Z,142.02
2023-03-19T04:58:41.151Z,139.64
2023-03-19T04:59:41.115Z,139.29
2023-03-19T05:00:41.124Z,141.18
2023-03-19T05:01:41.121Z,138.14
2023-03-19T05:02:41.090Z,138.37
2023-03-19T05:03:41.105Z,138.60
2023-03-19T05:04:41.057Z,138.83
2023-03-19T05:05:41.053Z,138.72
2023-03-19T05:06:41.038Z,143.36
2023-03-19T05:07:41.036Z,140.11
2023-03-19T05:08:41.027Z,139.76
2023-03-19T05:09:40.972Z,139.64
2023-03-19T05:10:40.731Z,140.47
2023-03-19T05:11:40.722Z,142.75
2023-03-19T05:12:40.737Z,142.26
2023-03-19T05:13:40.292Z,139.53
2023-03-19T05:14:40.731Z,140.47
2023-03-19T05:15:41.639Z,139.76
2023-03-19T05:16:40.736Z,139.29
2023-03-19T05:17:40.880Z,142.26
2023-03-19T05:18:41.454Z,139.76
2023-03-19T05:19:40.738Z,140.35
2023-03-19T05:20:40.837Z,140.47
2023-03-19T05:21:40.089Z,141.66
2023-03-19T05:22:40.085Z,141.90
2023-03-19T05:23:40.824Z,140.11
2023-03-19T05:24:40.779Z,140.82
2023-03-19T05:25:40.826Z,141.06
2023-03-19T05:26:40.764Z,140.70
2023-03-19T05:27:40.757Z,140.59
2023-03-19T05:28:40.737Z,140.94
2023-03-19T05:29:40.991Z,142.63
2023-03-19T05:30:40.086Z,142.87
2023-03-19T05:31:40.683Z,140.94
2023-03-19T05:32:40.898Z,138.37
2023-03-19T05:33:40.684Z,138.03
2023-03-19T05:34:40.666Z,139.29
2023-03-19T05:35:40.664Z,139.88
2023-03-19T05:36:40.632Z,140.23
2023-03-19T05:37:40.090Z,140.82
2023-03-19T05:38:40.602Z,140.35
2023-03-19T05:39:40.596Z,141.54
2023-03-19T05:40:40.557Z,141.42
2023-03-19T05:41:41.276Z,141.18
2023-03-19T05:42:40.546Z,141.54
2023-03-19T05:43:40.536Z,142.63
2023-03-19T05:44:40.519Z,142.87
2023-03-19T05:45:40.490Z,142.99
2023-03-19T05:46:40.606Z,143.36
2023-03-19T05:47:40.492Z,142.75
2023-03-19T05:48:40.474Z,143.12
2023-03-19T05:49:40.456Z,144.23
2023-03-19T05:50:40.437Z,144.11
2023-03-19T05:51:40.434Z,144.36
2023-03-19T05:52:40.434Z,146.77
2023-03-19T05:53:40.407Z,143.98
2023-03-19T05:54:40.390Z,144.61
2023-03-19T05:55:40.353Z,145.62
2023-03-19T05:56:40.358Z,147.03
2023-03-19T05:57:40.363Z,145.11
2023-03-19T05:58:40.337Z,145.87
2023-03-19T05:59:40.384Z,145.87
2023-03-19T06:00:40.278Z,145.11
2023-03-19T06:01:39.864Z,145.11
2023-03-19T06:02:40.303Z,145.87
2023-03-19T06:03:40.298Z,145.49
2023-03-19T06:04:40.246Z,145.74
2023-03-19T06:05:40.221Z,144.73
2023-03-19T06:06:40.223Z,146.77
2023-03-19T06:07:40.218Z,147.03
2023-03-19T06:08:40.214Z,147.29
2023-03-19T06:09:40.199Z,144.73
2023-03-19T06:10:40.150Z,145.11
2023-03-19T06:11:40.160Z,145.24
2023-03-19T06:12:40.141Z,147.03
2023-03-19T06:13:40.132Z,144.73
2023-03-19T06:14:40.120Z,147.94
2023-03-19T06:15:40.084Z,144.98
2023-03-19T06:16:40.100Z,144.98
2023-03-19T06:17:39.351Z,144.73
2023-03-19T06:18:40.089Z,147.03
2023-03-19T06:19:39.800Z,145.62
2023-03-19T06:20:39.794Z,145.24
2023-03-19T06:21:39.796Z,144.61
2023-03-19T06:22:40.016Z,146.25
2023-03-19T06:23:40.000Z,145.87
2023-03-19T06:24:39.971Z,142.99
2023-03-19T06:25:39.816Z,145.11
2023-03-19T06:26:39.787Z,142.38
2023-03-19T06:27:39.927Z,143.12
2023-03-19T06:28:39.795Z,146.64
2023-03-19T06:29:39.913Z,143.86
2023-03-19T06:30:39.869Z,144.36
2023-03-19T06:31:39.878Z,144.61
2023-03-19T06:32:39.885Z,145.87
2023-03-19T06:33:39.639Z,144.48
2023-03-19T06:34:39.817Z,144.48
2023-03-19T06:35:40.594Z,143.49
2023-03-19T06:36:39.808Z,143.73
2023-03-19T06:37:39.822Z,142.63
2023-03-19T06:38:40.511Z,142.51
2023-03-19T06:39:40.506Z,142.51
2023-03-19T06:40:40.494Z,142.63
2023-03-19T06:41:39.771Z,142.14
2023-03-19T06:42:39.782Z,143.36
2023-03-19T06:43:40.438Z,141.66
2023-03-19T06:44:40.424Z,142.63
2023-03-19T06:45:40.527Z,142.14
2023-03-19T06:46:40.409Z,142.26
2023-03-19T06:47:39.669Z,141.30
2023-03-19T06:48:39.674Z,141.18
2023-03-19T06:49:39.635Z,141.06
2023-03-19T06:50:40.372Z,141.66
2023-03-19T06:51:39.624Z,142.38
2023-03-19T06:52:39.608Z,141.06
2023-03-19T06:53:39.593Z,142.38
2023-03-19T06:54:39.576Z,141.30
2023-03-19T06:55:39.788Z,142.14
2023-03-19T06:56:39.566Z,142.63
2023-03-19T06:57:38.804Z,143.24
2023-03-19T06:58:39.535Z,143.73
2023-03-19T06:59:39.501Z,144.61
2023-03-19T07:00:39.503Z,144.73
2023-03-19T07:01:39.481Z,145.74
2023-03-19T07:02:39.451Z,145.49
2023-03-19T07:03:39.460Z,145.11
2023-03-19T07:04:39.452Z,144.86
2023-03-19T07:05:39.407Z,143.98
2023-03-19T07:06:39.617Z,144.11
2023-03-19T07:07:39.407Z,141.66
2023-03-19T07:08:39.387Z,142.63
2023-03-19T07:09:39.389Z,141.78
2023-03-19T07:10:39.329Z,141.90
2023-03-19T07:11:39.350Z,140.82
2023-03-19T07:12:39.331Z,140.70
2023-03-19T07:13:39.326Z,139.76
2023-03-19T07:14:39.314Z,139.88
2023-03-19T07:15:39.270Z,140.82
2023-03-19T07:16:39.279Z,141.42
2023-03-19T07:17:39.992Z,142.75
2023-03-19T07:18:39.258Z,142.38
2023-03-19T07:19:39.232Z,142.02
2023-03-19T07:20:39.200Z,142.63
2023-03-19T07:21:38.488Z,142.99
2023-03-19T07:22:38.830Z,143.73
2023-03-19T07:23:39.193Z,142.99
2023-03-19T07:24:39.171Z,142.87
2023-03-19T07:25:39.132Z,143.36
2023-03-19T07:26:39.140Z,142.99
2023-03-19T07:27:38.479Z,142.87
2023-03-19T07:28:39.124Z,144.23
2023-03-19T07:29:38.359Z,145.24
2023-03-19T07:30:38.438Z,145.24
2023-03-19T07:31:39.095Z,146.25
2023-03-19T07:32:38.870Z,145.11
2023-03-19T07:33:39.037Z,146.38
2023-03-19T07:34:39.036Z,147.94
2023-03-19T07:35:38.348Z,146.51
2023-03-19T07:36:39.004Z,149.80
2023-03-19T07:37:38.293Z,154.80
2023-03-19T07:38:38.425Z,160.15
2023-03-19T07:39:38.965Z,164.25
2023-03-19T07:40:40.033Z,168.56
2023-03-19T07:41:38.941Z,172.39
2023-03-19T07:42:38.939Z,174.92
2023-03-19T07:43:38.569Z,177.90
2023-03-19T07:44:38.894Z,180.02
2023-03-19T07:45:38.173Z,183.99
2023-03-19T07:46:38.663Z,186.04
2023-03-19T07:47:38.855Z,187.53
2023-03-19T07:48:38.703Z,191.25
2023-03-19T07:49:38.818Z,195.46
2023-03-19T07:50:39.559Z,198.66
2023-03-19T07:51:39.508Z,200.85
2023-03-19T07:52:38.777Z,203.34
2023-03-19T07:53:39.486Z,204.86
2023-03-19T07:54:39.466Z,206.15
2023-03-19T07:55:39.479Z,208.77
2023-03-19T07:56:39.446Z,210.38
2023-03-19T07:57:39.440Z,210.92
2023-03-19T07:58:39.425Z,212.56
2023-03-19T07:59:39.399Z,215.77
2023-03-19T08:00:39.383Z,219.38
2023-03-19T08:01:39.377Z,223.87
2023-03-19T08:02:39.400Z,228.23
2023-03-19T08:03:38.625Z,230.64
2023-03-19T08:04:38.683Z,233.43
2023-03-19T08:05:38.603Z,236.28
2023-03-19T08:06:38.575Z,237.82
2023-03-19T08:07:38.590Z,240.97
2023-03-19T08:08:38.569Z,243.47
2023-03-19T08:09:38.540Z,245.11
2023-03-19T08:10:39.145Z,247.70
2023-03-19T08:11:38.498Z,250.73
2023-03-19T08:12:37.880Z,254.23
2023-03-19T08:13:38.512Z,257.01
2023-03-19T08:14:38.470Z,261.73
2023-03-19T08:15:38.469Z,264.05
2023-03-19T08:16:38.453Z,267.71
2023-03-19T08:17:38.474Z,269.47
2023-03-19T08:18:38.428Z,272.37
2023-03-19T08:19:38.414Z,275.35
2023-03-19T08:20:38.408Z,277.21
2023-03-19T08:21:38.385Z,278.86
2023-03-19T08:22:38.366Z,282.70
2023-03-19T08:23:38.345Z,286.40
2023-03-19T08:24:38.345Z,288.16
2023-03-19T08:25:37.595Z,289.94
2023-03-19T08:26:38.307Z,295.16
2023-03-19T08:27:38.327Z,297.30
2023-03-19T08:28:38.297Z,300.29
2023-03-19T08:29:38.282Z,307.61
2023-03-19T08:30:38.561Z,310.23
2023-03-19T08:31:38.229Z,315.00
2023-03-19T08:32:38.264Z,319.91
2023-03-19T08:33:38.226Z,322.11
2023-03-19T08:34:38.211Z,322.11
2023-03-19T08:35:38.237Z,325.30
2023-03-19T08:36:38.165Z,322.74
2023-03-19T08:37:38.170Z,328.23
2023-03-19T08:38:37.900Z,329.55
2023-03-19T08:39:37.481Z,334.93
2023-03-19T08:40:37.912Z,335.62
2023-03-19T08:41:37.391Z,338.39
2023-03-19T08:42:38.100Z,337.00
2023-03-19T08:43:38.124Z,335.96
2023-03-19T08:44:37.908Z,336.30
2023-03-19T08:45:38.070Z,336.65
2023-03-19T08:46:38.073Z,340.14
2023-03-19T08:47:38.032Z,341.20
2023-03-19T08:48:39.608Z,342.63
2023-03-19T08:49:37.899Z,345.88
2023-03-19T08:50:38.187Z,345.51
2023-03-19T08:51:37.959Z,344.79
2023-03-19T08:52:37.911Z,346.97
2023-03-19T08:53:37.983Z,345.15
2023-03-19T08:54:37.966Z,344.42
2023-03-19T08:55:37.930Z,345.51
2023-03-19T08:56:37.906Z,342.63
2023-03-19T08:57:37.905Z,343.70
2023-03-19T08:58:38.585Z,339.08
2023-03-19T08:59:37.651Z,335.27
2023-03-19T09:00:37.875Z,332.55
2023-03-19T09:01:38.577Z,330.88
2023-03-19T09:02:38.533Z,329.22
2023-03-19T09:03:38.535Z,326.60
2023-03-19T09:04:38.555Z,321.48
2023-03-19T09:05:38.507Z,317.43
2023-03-19T09:06:38.492Z,314.69
2023-03-19T09:07:37.771Z,312.30
2023-03-19T09:08:37.749Z,307.61
2023-03-19T09:09:37.722Z,303.07
2023-03-19T09:10:37.721Z,298.38
2023-03-19T09:11:37.751Z,294.90
2023-03-19T09:12:38.410Z,290.97
2023-03-19T09:13:37.672Z,285.40
2023-03-19T09:14:37.669Z,278.86
2023-03-19T09:15:37.708Z,273.97
2023-03-19T09:16:37.607Z,267.71
2023-03-19T09:17:37.625Z,264.05
2023-03-19T09:18:37.626Z,259.86
2023-03-19T09:19:37.599Z,258.63
2023-03-19T09:20:37.579Z,255.81
2023-03-19T09:21:37.549Z,253.05
2023-03-19T09:22:37.558Z,252.46
2023-03-19T09:23:37.536Z,253.24
2023-03-19T09:24:40.392Z,255.41
2023-03-19T09:25:37.524Z,255.21
2023-03-19T09:26:37.482Z,256.81
2023-03-19T09:27:37.486Z,256.81
2023-03-19T09:28:37.485Z,257.21
2023-03-19T09:29:37.446Z,257.01
2023-03-19T09:30:37.443Z,254.82
2023-03-19T09:31:37.458Z,257.01
2023-03-19T09:32:37.456Z,255.01
2023-03-19T09:33:37.402Z,255.41
2023-03-19T09:34:37.386Z,255.01
2023-03-19T09:35:37.533Z,256.41
2023-03-19T09:36:37.365Z,257.21
2023-03-19T09:37:37.359Z,257.82
2023-03-19T09:38:37.345Z,256.61
2023-03-19T09:39:37.080Z,258.43
2023-03-19T09:40:37.304Z,260.48
2023-03-19T09:41:37.260Z,260.27
2023-03-19T09:42:37.291Z,260.90
2023-03-19T09:43:37.282Z,260.48
2023-03-19T09:44:37.054Z,258.23
2023-03-19T09:45:37.059Z,257.01
2023-03-19T09:46:37.254Z,256.21
2023-03-19T09:47:36.971Z,261.10
2023-03-19T09:48:37.204Z,259.04
2023-03-19T09:49:36.941Z,256.81
2023-03-19T09:50:36.961Z,259.66
2023-03-19T09:51:37.161Z,260.69
2023-03-19T09:52:36.441Z,261.31
2023-03-19T09:53:37.127Z,262.57
2023-03-19T09:54:37.121Z,262.36
2023-03-19T09:55:37.403Z,262.36
2023-03-19T09:56:37.089Z,263.20
2023-03-19T09:57:37.050Z,264.47
2023-03-19T09:58:36.614Z,262.36
2023-03-19T09:59:37.064Z,262.99
2023-03-19T10:00:36.352Z,261.73
2023-03-19T10:01:37.087Z,262.78
2023-03-19T10:02:37.735Z,262.78
2023-03-19T10:03:36.786Z,262.99
2023-03-19T10:04:36.989Z,260.48
2023-03-19T10:05:37.101Z,260.90
2023-03-19T10:06:36.889Z,260.07
2023-03-19T10:07:36.913Z,260.90
2023-03-19T10:08:36.928Z,257.42
2023-03-19T10:09:37.632Z,259.04
2023-03-19T10:10:37.608Z,258.63
2023-03-19T10:11:36.880Z,257.42
2023-03-19T10:12:37.603Z,256.81
2023-03-19T10:13:36.850Z,255.41
2023-03-19T10:14:36.868Z,253.83
2023-03-19T10:15:37.759Z,250.92
2023-03-19T10:16:37.609Z,248.64
2023-03-19T10:17:37.542Z,246.21
2023-03-19T10:18:36.798Z,241.68
2023-03-19T10:19:40.337Z,237.82
2023-03-19T10:20:37.476Z,232.60
2023-03-19T10:21:36.754Z,228.23
2023-03-19T10:22:36.716Z,225.56
2023-03-19T10:23:36.720Z,219.53
2023-03-19T10:24:36.721Z,215.49
2023-03-19T10:25:38.490Z,212.28
2023-03-19T10:26:37.413Z,207.98
2023-03-19T10:27:36.643Z,205.24
2023-03-19T10:28:36.656Z,202.21
2023-03-19T10:29:36.643Z,199.26
2023-03-19T10:30:36.623Z,196.40
2023-03-19T10:31:36.814Z,193.73
2023-03-19T10:32:36.628Z,189.37
2023-03-19T10:33:36.582Z,187.32
2023-03-19T10:34:36.599Z,186.26
2023-03-19T10:35:36.928Z,185.62
2023-03-19T10:36:36.533Z,182.78
2023-03-19T10:37:36.503Z,180.21
2023-03-19T10:38:37.231Z,177.53
2023-03-19T10:39:36.491Z,175.66
2023-03-19T10:40:36.493Z,174.01
2023-03-19T10:41:36.471Z,172.57
2023-03-19T10:42:36.425Z,171.33
2023-03-19T10:43:36.445Z,171.51
2023-03-19T10:44:36.450Z,170.98
2023-03-19T10:45:38.662Z,169.07
2023-03-19T10:46:36.407Z,167.88
2023-03-19T10:47:36.363Z,166.38
2023-03-19T10:48:36.377Z,166.04
2023-03-19T10:49:36.349Z,167.04
2023-03-19T10:50:36.371Z,165.71
2023-03-19T10:51:36.335Z,165.39
2023-03-19T10:52:36.302Z,163.92
2023-03-19T10:53:36.322Z,162.33
2023-03-19T10:54:36.287Z,160.92
2023-03-19T10:55:36.673Z,159.08
2023-03-19T10:56:36.068Z,158.63
2023-03-19T10:57:36.007Z,158.78
2023-03-19T10:58:36.017Z,156.10
2023-03-19T10:59:35.998Z,157.58
2023-03-19T11:00:36.227Z,157.13
2023-03-19T11:01:36.193Z,155.38
2023-03-19T11:02:36.015Z,154.51
2023-03-19T11:03:36.043Z,153.94
2023-03-19T11:04:36.011Z,153.66
2023-03-19T11:05:36.174Z,153.66
2023-03-19T11:06:36.120Z,152.82
2023-03-19T11:07:36.012Z,153.38
2023-03-19T11:08:36.254Z,153.24
2023-03-19T11:09:36.085Z,153.80
2023-03-19T11:10:36.100Z,152.26
2023-03-19T11:11:36.008Z,151.84
2023-03-19T11:12:36.010Z,151.15
2023-03-19T11:13:36.040Z,150.47
2023-03-19T11:14:36.038Z,150.20
2023-03-19T11:15:36.925Z,149.40
2023-03-19T11:16:36.806Z,149.53
2023-03-19T11:17:36.713Z,149.40
2023-03-19T11:18:35.285Z,149.40
2023-03-19T11:19:35.945Z,148.20
2023-03-19T11:20:35.550Z,147.81
2023-03-19T11:21:35.929Z,147.16
2023-03-19T11:22:35.911Z,147.42
2023-03-19T11:23:36.622Z,147.03
2023-03-19T11:24:35.893Z,146.64
2023-03-19T11:25:36.245Z,145.74
2023-03-19T11:26:35.865Z,144.98
2023-03-19T11:27:35.836Z,145.36
2023-03-19T11:28:35.807Z,146.12
2023-03-19T11:29:36.053Z,146.00
2023-03-19T11:30:35.801Z,145.24
2023-03-19T11:31:35.802Z,145.87
2023-03-19T11:32:35.846Z,146.38
2023-03-19T11:33:35.738Z,145.62
2023-03-19T11:34:35.739Z,144.61
2023-03-19T11:35:36.062Z,144.48
2023-03-19T11:36:34.981Z,144.98
2023-03-19T11:37:35.707Z,144.23
2023-03-19T11:38:35.660Z,144.61
2023-03-19T11:39:35.678Z,144.48
2023-03-19T11:40:35.656Z,144.11
2023-03-19T11:41:35.641Z,143.12
2023-03-19T11:42:35.651Z,143.61
2023-03-19T11:43:35.646Z,142.99
2023-03-19T11:44:35.619Z,142.63
2023-03-19T11:45:36.018Z,142.26
2023-03-19T11:46:35.910Z,142.51
2023-03-19T11:47:35.568Z,142.02
2023-03-19T11:48:35.535Z,140.59
2023-03-19T11:49:35.545Z,139.76
2023-03-19T11:50:35.541Z,140.47
2023-03-19T11:51:35.517Z,140.70
2023-03-19T11:52:35.496Z,140.35
2023-03-19T11:53:35.732Z,141.66
2023-03-19T11:54:35.472Z,140.94
2023-03-19T11:55:35.804Z,141.06
2023-03-19T11:56:35.445Z,140.94
2023-03-19T11:57:35.440Z,140.11
2023-03-19T11:58:35.048Z,139.76
2023-03-19T11:59:35.404Z,140.23
2023-03-19T12:00:34.664Z,140.23
2023-03-19T12:01:36.270Z,139.18
2023-03-19T12:02:35.433Z,138.72
2023-03-19T12:03:35.638Z,139.06
2023-03-19T12:04:35.345Z,140.70
2023-03-19T12:05:35.592Z,141.78
2023-03-19T12:06:35.066Z,142.51
2023-03-19T12:07:35.054Z,142.51
2023-03-19T12:08:35.054Z,142.02
2023-03-19T12:09:35.052Z,141.06
2023-03-19T12:10:35.566Z,141.06
2023-03-19T12:11:34.512Z,141.18
2023-03-19T12:12:35.238Z,140.70
2023-03-19T12:13:35.201Z,141.30
2023-03-19T12:14:34.592Z,140.35
2023-03-19T12:15:35.531Z,142.02
2023-03-19T12:16:39.019Z,140.94
2023-03-19T12:17:36.159Z,140.94
2023-03-19T12:18:35.130Z,142.63
2023-03-19T12:19:34.741Z,145.24
2023-03-19T12:20:35.341Z,146.38
2023-03-19T12:21:35.105Z,144.86
2023-03-19T12:22:34.859Z,145.49
2023-03-19T12:23:36.098Z,147.42
2023-03-19T12:24:34.888Z,148.46
2023-03-19T12:25:35.220Z,149.80
2023-03-19T12:26:35.777Z,149.26
2023-03-19T12:27:35.047Z,150.47
2023-03-19T12:28:35.750Z,151.71